createdAt,value
2022-09-12T00:01:20.817Z,95.03
2022-09-12T00:03:48.454Z,101.07
2022-09-12T00:06:24.165Z,99.32
2022-09-12T00:08:55.188Z,94.43
2022-09-12T00:11:22.743Z,82.88
2022-09-12T00:13:50.074Z,93.28
2022-09-12T00:16:24.751Z,93.38
2022-09-12T00:18:53.626Z,97.47
2022-09-12T00:21:22.478Z,81.22
2022-09-12T00:23:50.572Z,84.28
2022-09-12T00:26:19.038Z,98.88
2022-09-12T00:28:47.037Z,115.85
2022-09-12T00:31:18.322Z,87.03
2022-09-12T00:33:45.742Z,101.18
2022-09-12T00:36:17.943Z,94.65
2022-09-12T00:38:46.067Z,76.85
2022-09-12T00:41:28.032Z,103.10
2022-09-12T00:44:23.366Z,106.95
2022-09-12T00:47:10.399Z,108.03
2022-09-12T00:49:50.741Z,97.93
2022-09-12T00:52:44.391Z,83.38
2022-09-12T00:55:19.424Z,120.95
2022-09-12T00:58:14.608Z,119.53
2022-09-12T01:00:41.810Z,89.45
2022-09-12T01:03:16.226Z,91.53
2022-09-12T01:05:59.281Z,123.63
2022-09-12T01:08:28.839Z,71.70
2022-09-12T01:10:57.677Z,155.98
2022-09-12T01:13:25.582Z,142.68
2022-09-12T01:15:54.254Z,72.07
2022-09-12T01:18:51.092Z,122.25
2022-09-12T01:21:30.913Z,86.72
2022-09-12T01:24:46.047Z,124.38
2022-09-12T01:27:51.028Z,88.25
2022-09-12T01:30:51.510Z,145.98
2022-09-12T01:33:40.062Z,85.45
2022-09-12T01:36:29.890Z,127.75
2022-09-12T01:39:10.146Z,105.97
2022-09-12T01:42:11.709Z,103.25
2022-09-12T01:45:02.925Z,67.70
2022-09-12T01:47:43.854Z,90.47
2022-09-12T01:50:21.658Z,120.72
2022-09-12T01:52:58.146Z,88.97
2022-09-12T01:55:40.628Z,133.82
2022-09-12T01:58:13.118Z,94.38
2022-09-12T02:01:10.484Z,91.75
2022-09-12T02:03:49.116Z,92.63
2022-09-12T02:06:35.589Z,93.50
2022-09-12T02:09:19.565Z,113.30
2022-09-12T02:11:52.397Z,76.15
2022-09-12T02:14:26.703Z,86.95
2022-09-12T02:17:19.226Z,87.35
2022-09-12T02:19:58.112Z,85.50
2022-09-12T02:22:29.249Z,98.15
2022-09-12T02:25:01.080Z,98.90
2022-09-12T02:27:47.113Z,70.05
2022-09-12T02:30:16.515Z,63.00
2022-09-12T02:33:01.280Z,65.43
2022-09-12T02:35:50.506Z,61.85
2022-09-12T02:38:40.316Z,106.30
2022-09-12T02:41:07.341Z,79.15
2022-09-12T02:43:34.474Z,63.85
2022-09-12T02:46:01.465Z,80.60
2022-09-12T02:48:34.896Z,79.53
2022-09-12T02:51:03.097Z,79.07
2022-09-12T02:53:30.243Z,77.22
2022-09-12T02:55:57.882Z,75.38
2022-09-12T02:58:31.370Z,98.63
2022-09-12T03:01:23.965Z,90.65
2022-09-12T03:04:26.834Z,104.45
2022-09-12T03:07:34.223Z,85.30
2022-09-12T03:10:33.045Z,85.60
2022-09-12T03:13:17.908Z,84.57
2022-09-12T03:15:56.776Z,74.05
2022-09-12T03:19:23.556Z,90.25
2022-09-12T03:22:05.943Z,109.30
2022-09-12T03:24:41.137Z,70.07
2022-09-12T03:30:00.153Z,76.20
2022-09-12T03:32:49.503Z,116.35
2022-09-12T03:35:23.012Z,90.38
2022-09-12T03:37:52.357Z,105.55
2022-09-12T03:40:20.052Z,74.43
2022-09-12T03:42:46.944Z,69.28
2022-09-12T03:45:16.161Z,67.10
2022-09-12T03:47:43.110Z,87.93
2022-09-12T03:50:10.180Z,85.90
2022-09-12T03:52:37.654Z,91.82
2022-09-12T03:55:05.657Z,73.90
2022-09-12T03:57:32.532Z,96.95
2022-09-12T03:59:59.444Z,109.45
2022-09-12T04:02:26.326Z,77.60
2022-09-12T04:04:53.140Z,106.40
2022-09-12T04:07:20.432Z,108.32
2022-09-12T04:09:47.393Z,65.38
2022-09-12T04:12:14.290Z,78.72
2022-09-12T04:15:07.991Z,71.72
2022-09-12T04:17:35.500Z,82.90
2022-09-12T04:20:02.767Z,113.72
2022-09-12T04:22:31.905Z,117.18
2022-09-12T04:24:58.732Z,80.57
2022-09-12T04:27:25.691Z,98.45
2022-09-12T04:29:54.790Z,94.20
2022-09-12T04:32:22.368Z,98.80
2022-09-12T04:34:49.534Z,96.40
2022-09-12T04:37:16.874Z,83.10
2022-09-12T04:39:43.742Z,97.03
2022-09-12T04:42:10.668Z,105.10
2022-09-12T04:44:37.630Z,107.00
2022-09-12T04:47:04.617Z,93.03
2022-09-12T04:49:31.825Z,90.25
2022-09-12T04:51:59.361Z,99.50
2022-09-12T04:54:26.691Z,114.78
2022-09-12T04:56:54.865Z,88.00
2022-09-12T04:59:23.509Z,101.68
2022-09-12T05:01:50.501Z,101.35
2022-09-12T05:04:18.273Z,101.03
2022-09-12T05:06:55.445Z,100.72
2022-09-12T05:09:26.959Z,85.10
2022-09-12T05:12:09.187Z,148.18
2022-09-12T05:14:36.240Z,177.32
2022-09-12T05:17:06.013Z,161.63
2022-09-12T05:19:34.491Z,132.93
2022-09-12T05:22:01.506Z,148.95
2022-09-12T05:24:28.894Z,165.88
2022-09-12T05:26:55.815Z,130.15
2022-09-12T05:29:22.764Z,127.88
2022-09-12T05:31:52.002Z,118.65
2022-09-12T05:34:23.489Z,105.35
2022-09-12T05:36:50.397Z,132.10
2022-09-12T05:39:18.514Z,150.43
2022-09-12T05:41:45.741Z,151.73
2022-09-12T05:44:14.494Z,140.52
2022-09-12T05:46:57.648Z,134.27
2022-09-12T05:49:24.706Z,127.03
2022-09-12T05:51:51.635Z,127.22
2022-09-12T05:54:20.532Z,141.68
2022-09-12T05:56:48.333Z,139.20
2022-09-12T05:59:21.437Z,141.70
2022-09-12T06:01:49.155Z,134.45
2022-09-12T06:04:16.467Z,141.75
2022-09-12T06:06:45.629Z,139.68
2022-09-12T06:09:15.280Z,129.05
2022-09-12T06:11:43.964Z,136.15
2022-09-12T06:14:15.963Z,140.55
2022-09-12T06:16:43.154Z,146.50
2022-09-12T06:19:20.238Z,119.80
2022-09-12T06:21:49.782Z,124.70
2022-09-12T06:24:18.922Z,142.50
2022-09-12T06:26:47.675Z,129.13
2022-09-12T06:29:15.904Z,124.43
2022-09-12T06:31:44.013Z,143.20
2022-09-12T06:34:14.065Z,146.25
2022-09-12T06:36:44.386Z,149.13
2022-09-12T06:39:18.324Z,132.73
2022-09-12T06:41:45.652Z,124.18
2022-09-12T06:44:24.534Z,128.95
2022-09-12T06:46:53.619Z,132.15
2022-09-12T06:49:20.637Z,125.88
2022-09-12T06:51:48.897Z,129.57
2022-09-12T06:54:17.320Z,121.63
2022-09-12T06:56:44.860Z,132.13
2022-09-12T06:59:12.630Z,116.55
2022-09-12T07:01:41.723Z,111.63
2022-09-12T07:04:12.306Z,97.60
2022-09-12T07:06:45.565Z,88.95
2022-09-12T07:09:18.221Z,113.15
2022-09-12T07:11:46.419Z,96.82
2022-09-12T07:14:16.904Z,84.85
2022-09-12T07:16:46.995Z,89.57
2022-09-12T07:19:21.559Z,79.65
2022-09-12T07:21:48.691Z,94.60
2022-09-12T07:24:16.285Z,88.45
2022-09-12T07:26:44.002Z,89.22
2022-09-12T07:29:36.616Z,76.20
2022-09-12T07:32:06.248Z,84.90
2022-09-12T07:34:34.032Z,94.30
2022-09-12T07:37:00.981Z,73.53
2022-09-12T07:39:33.719Z,86.97
2022-09-12T07:42:03.196Z,77.45
2022-09-12T07:44:30.204Z,79.63
2022-09-12T07:47:04.749Z,67.57
2022-09-12T07:49:37.267Z,63.60
2022-09-12T07:52:10.513Z,47.55
2022-09-12T07:54:37.427Z,58.22
2022-09-12T07:57:04.416Z,64.88
2022-09-12T07:59:51.310Z,62.35
2022-09-12T08:02:18.549Z,45.53
2022-09-12T08:04:46.863Z,43.33
2022-09-12T08:07:14.568Z,34.55
2022-09-12T08:09:41.563Z,41.75
2022-09-12T08:12:08.794Z,47.50
2022-09-12T08:14:35.819Z,36.85
2022-09-12T08:17:02.831Z,36.35
2022-09-12T08:19:30.032Z,38.25
2022-09-12T08:21:57.086Z,37.92
2022-09-12T08:24:25.078Z,34.45
2022-09-12T08:26:58.917Z,34.22
2022-09-12T08:29:26.024Z,33.60
2022-09-12T08:31:57.184Z,29.48
2022-09-12T08:34:24.897Z,29.27
2022-09-12T08:36:54.248Z,30.23
2022-09-12T08:39:22.091Z,25.88
2022-09-12T08:42:06.669Z,27.08
2022-09-12T08:45:11.673Z,23.92
2022-09-12T08:47:46.047Z,20.42
2022-09-12T08:50:18.924Z,22.65
2022-09-12T08:53:10.075Z,19.85
2022-09-12T08:55:44.645Z,19.35
2022-09-12T09:01:01.896Z,18.17
2022-09-12T09:04:18.153Z,18.33
2022-09-12T09:09:36.140Z,13.03
2022-09-12T09:12:44.166Z,11.68
2022-09-12T09:15:58.851Z,12.45
2022-09-12T09:18:32.732Z,8.90
2022-09-12T09:21:14.859Z,9.85
2022-09-12T09:23:48.382Z,9.60
2022-09-12T09:26:26.653Z,8.68
2022-09-12T09:29:05.949Z,9.40
2022-09-12T09:31:39.060Z,7.82
2022-09-12T09:34:32.160Z,5.35
2022-09-12T09:37:14.017Z,6.00
2022-09-12T09:40:08.278Z,5.90
2022-09-12T09:43:06.217Z,7.32
2022-09-12T09:45:33.119Z,6.88
2022-09-12T09:48:30.346Z,6.72
2022-09-12T09:51:03.528Z,7.57
2022-09-12T09:53:50.331Z,7.03
2022-09-12T09:56:30.171Z,7.75
2022-09-12T09:58:57.368Z,5.40
2022-09-12T10:01:27.772Z,7.20
2022-09-12T10:03:56.776Z,5.10
2022-09-12T10:06:34.310Z,5.40
2022-09-12T10:09:15.806Z,5.97
2022-09-12T10:11:45.882Z,4.30
2022-09-12T10:14:40.738Z,5.85
2022-09-12T10:17:39.904Z,4.55
2022-09-12T10:20:31.455Z,4.53
2022-09-12T10:23:30.214Z,5.07
2022-09-12T10:26:04.141Z,4.70
2022-09-12T10:28:39.870Z,4.57
2022-09-12T10:31:16.573Z,4.97
2022-09-12T10:33:52.761Z,5.07
2022-09-12T10:36:21.525Z,4.05
2022-09-12T10:38:57.040Z,3.80
2022-09-12T10:41:24.931Z,2.35
2022-09-12T10:43:51.846Z,2.67
2022-09-12T10:46:19.217Z,3.67
2022-09-12T10:48:49.245Z,4.68
2022-09-12T10:51:25.420Z,3.70
2022-09-12T10:53:57.175Z,3.30
2022-09-12T10:56:26.295Z,2.83
2022-09-12T10:58:56.171Z,2.30
2022-09-12T11:01:41.355Z,4.95
2022-09-12T11:04:39.743Z,4.38
2022-09-12T11:07:40.599Z,1.92
2022-09-12T11:10:37.357Z,2.65
2022-09-12T11:13:32.485Z,2.53
2022-09-12T11:16:17.565Z,2.60
2022-09-12T11:18:56.064Z,2.35
2022-09-12T11:22:36.433Z,2.67
2022-09-12T11:25:30.966Z,2.78
2022-09-12T11:28:37.509Z,2.30
2022-09-12T11:31:40.483Z,1.77
2022-09-12T11:34:16.382Z,2.30
2022-09-12T11:37:31.634Z,2.13
2022-09-12T11:40:20.542Z,3.42
2022-09-12T11:42:54.484Z,2.00
2022-09-12T11:45:44.098Z,4.50
2022-09-12T11:48:40.180Z,3.35
2022-09-12T11:51:21.173Z,2.08
2022-09-12T11:54:09.503Z,3.80
2022-09-12T11:56:44.620Z,2.10
2022-09-12T11:59:23.863Z,1.58
2022-09-12T12:01:59.164Z,2.05
2022-09-12T12:04:39.640Z,1.55
2022-09-12T12:07:11.182Z,1.83
2022-09-12T12:09:52.349Z,2.28
2022-09-12T12:12:28.963Z,2.80
2022-09-12T12:14:58.967Z,2.90
2022-09-12T12:17:27.300Z,2.08
2022-09-12T12:20:07.636Z,1.83
2022-09-12T12:22:35.957Z,1.65
2022-09-12T12:25:07.021Z,2.75
2022-09-12T12:27:55.102Z,1.98
2022-09-12T12:30:31.433Z,4.40
2022-09-12T12:33:14.645Z,1.67
2022-09-12T12:35:46.775Z,2.55
2022-09-12T12:38:37.181Z,1.30
2022-09-12T12:41:19.285Z,2.53
2022-09-12T12:43:57.603Z,1.88
2022-09-12T12:46:30.944Z,2.22
2022-09-12T12:49:27.857Z,1.35
2022-09-12T12:51:54.708Z,2.40
2022-09-12T12:54:49.706Z,2.33
2022-09-12T12:57:26.100Z,1.20
2022-09-12T13:00:25.557Z,4.90
2022-09-12T13:03:05.985Z,1.48
2022-09-12T13:05:47.481Z,2.88
2022-09-12T13:08:17.215Z,2.42
2022-09-12T13:11:14.528Z,1.60
2022-09-12T13:13:58.466Z,3.15
2022-09-12T13:16:38.613Z,1.40
2022-09-12T13:19:18.430Z,1.45
2022-09-12T13:22:09.160Z,1.08
2022-09-12T13:24:53.579Z,1.25
2022-09-12T13:27:25.763Z,1.67
2022-09-12T13:30:15.136Z,2.17
2022-09-12T13:32:43.939Z,3.20
2022-09-12T13:35:33.761Z,1.50
2022-09-12T13:38:34.873Z,2.28
2022-09-12T13:41:53.240Z,1.10
2022-09-12T13:44:23.751Z,1.60
2022-09-12T13:46:52.237Z,2.08
2022-09-12T13:49:35.214Z,2.63
2022-09-12T13:52:21.220Z,2.33
2022-09-12T13:54:53.823Z,2.53
2022-09-12T13:57:42.426Z,1.58
2022-09-12T14:00:22.384Z,1.98
2022-09-12T14:02:50.190Z,1.15
2022-09-12T14:05:25.006Z,2.05
2022-09-12T14:10:38.000Z,1.30
2022-09-12T14:13:13.862Z,1.13
2022-09-12T14:15:48.518Z,2.03
2022-09-12T14:18:24.587Z,1.30
2022-09-12T14:20:56.892Z,1.60
2022-09-12T14:23:33.166Z,2.38
2022-09-12T14:26:06.575Z,1.70
2022-09-12T14:28:34.350Z,1.00
2022-09-12T14:31:31.467Z,2.15
2022-09-12T14:34:15.371Z,1.40
2022-09-12T14:36:50.015Z,1.63
2022-09-12T14:39:42.668Z,1.30
2022-09-12T14:42:16.446Z,1.92
2022-09-12T14:44:57.539Z,1.33
2022-09-12T14:47:31.270Z,1.05
2022-09-12T14:49:58.258Z,0.87
2022-09-12T14:52:33.196Z,1.25
2022-09-12T14:55:31.362Z,2.08
2022-09-12T14:58:28.525Z,0.90
2022-09-12T15:01:07.990Z,2.15
2022-09-12T15:03:49.259Z,2.00
2022-09-12T15:06:32.974Z,0.93
2022-09-12T15:09:13.690Z,0.88
2022-09-12T15:11:40.632Z,1.73
2022-09-12T15:14:14.368Z,1.20
2022-09-12T15:16:41.756Z,7.60
2022-09-12T15:19:08.713Z,2.05
2022-09-12T15:21:35.697Z,1.73
2022-09-12T15:24:03.469Z,2.17
2022-09-12T15:26:31.716Z,1.05
2022-09-12T15:28:58.670Z,0.98
2022-09-12T15:31:31.597Z,1.55
2022-09-12T15:34:01.155Z,3.47
2022-09-12T15:36:29.095Z,1.02
2022-09-12T15:38:56.601Z,2.45
2022-09-12T15:41:32.676Z,1.27
2022-09-12T15:43:59.715Z,1.85
2022-09-12T15:46:27.180Z,1.20
2022-09-12T15:48:54.097Z,1.80
2022-09-12T15:51:22.371Z,1.55
2022-09-12T15:53:51.041Z,1.77
2022-09-12T15:56:21.189Z,1.58
2022-09-12T15:58:58.845Z,1.80
2022-09-12T16:01:28.806Z,1.75
2022-09-12T16:03:55.969Z,1.77
2022-09-12T16:06:23.542Z,1.08
2022-09-12T16:08:50.671Z,1.27
2022-09-12T16:11:23.342Z,1.10
2022-09-12T16:13:55.649Z,2.65
2022-09-12T16:16:22.916Z,2.55
2022-09-12T16:18:49.839Z,1.00
2022-09-12T16:21:16.821Z,1.00
2022-09-12T16:23:45.476Z,2.17
2022-09-12T16:26:12.447Z,1.80
2022-09-12T16:28:40.454Z,1.63
2022-09-12T16:31:10.268Z,2.17
2022-09-12T16:33:41.144Z,1.13
2022-09-12T16:36:11.853Z,1.42
2022-09-12T16:38:53.013Z,1.30
2022-09-12T16:41:29.411Z,1.27
2022-09-12T16:43:56.479Z,2.15
2022-09-12T16:46:30.668Z,1.65
2022-09-12T16:48:59.241Z,1.42
2022-09-12T16:51:33.566Z,1.60
2022-09-12T16:54:03.019Z,1.25
2022-09-12T16:56:30.533Z,1.10
2022-09-12T16:58:57.415Z,1.23
2022-09-12T17:01:26.377Z,2.15
2022-09-12T17:03:58.400Z,1.25
2022-09-12T17:06:26.929Z,1.90
2022-09-12T17:08:58.181Z,2.45
2022-09-12T17:11:36.425Z,1.40
2022-09-12T17:14:07.256Z,2.00
2022-09-12T17:16:41.839Z,1.23
2022-09-12T17:19:16.306Z,1.23
2022-09-12T17:21:45.042Z,1.90
2022-09-12T17:24:11.964Z,2.80
2022-09-12T17:26:39.038Z,1.80
2022-09-12T17:29:06.202Z,3.47
2022-09-12T17:31:33.472Z,1.92
2022-09-12T17:34:02.235Z,3.92
2022-09-12T17:36:31.889Z,2.08
2022-09-12T17:38:59.807Z,2.20
2022-09-12T17:41:31.863Z,2.10
2022-09-12T17:44:01.397Z,1.63
2022-09-12T17:46:38.390Z,4.28
2022-09-12T17:49:15.668Z,2.00
2022-09-12T17:51:43.936Z,2.45
2022-09-12T17:54:15.657Z,2.35
2022-09-12T17:56:45.513Z,2.30
2022-09-12T17:59:22.884Z,1.95
2022-09-12T18:02:11.381Z,2.75
2022-09-12T18:04:39.141Z,5.05
2022-09-12T18:07:06.529Z,4.07
2022-09-12T18:09:33.625Z,4.50
2022-09-12T18:12:00.855Z,4.78
2022-09-12T18:14:28.804Z,2.70
2022-09-12T18:17:00.168Z,3.63
2022-09-12T18:19:28.860Z,2.47
2022-09-12T18:21:56.894Z,3.95
2022-09-12T18:24:24.396Z,2.90
2022-09-12T18:26:51.369Z,2.50
2022-09-12T18:29:20.233Z,3.35
2022-09-12T18:31:50.328Z,5.35
2022-09-12T18:34:28.296Z,2.92
2022-09-12T18:36:55.603Z,3.92
2022-09-12T18:39:27.552Z,3.22
2022-09-12T18:41:57.582Z,2.53
2022-09-12T18:44:24.724Z,3.08
2022-09-12T18:46:54.672Z,5.15
2022-09-12T18:49:24.880Z,4.38
2022-09-12T18:51:57.330Z,4.13
2022-09-12T18:54:33.409Z,5.28
2022-09-12T18:57:00.846Z,3.20
2022-09-12T18:59:27.866Z,3.25
2022-09-12T19:01:54.889Z,2.08
2022-09-12T19:04:22.247Z,5.25
2022-09-12T19:06:50.569Z,6.03
2022-09-12T19:09:20.950Z,3.92
2022-09-12T19:11:49.981Z,3.80
2022-09-12T19:14:29.127Z,7.10
2022-09-12T19:16:56.025Z,3.55
2022-09-12T19:19:23.014Z,4.07
2022-09-12T19:21:50.239Z,3.90
2022-09-12T19:24:17.329Z,3.10
2022-09-12T19:26:44.733Z,4.53
2022-09-12T19:29:13.773Z,4.13
2022-09-12T19:31:41.079Z,2.75
2022-09-12T19:34:08.367Z,5.45
2022-09-12T19:36:51.411Z,3.28
2022-09-12T19:39:19.853Z,3.35
2022-09-12T19:41:47.924Z,5.65
2022-09-12T19:44:14.861Z,5.28
2022-09-12T19:46:41.915Z,3.88
2022-09-12T19:49:11.711Z,4.78
2022-09-12T19:51:39.007Z,6.13
2022-09-12T19:54:06.150Z,4.40
2022-09-12T19:56:33.041Z,8.13
2022-09-12T19:59:00.162Z,5.90
2022-09-12T20:01:30.599Z,5.90
2022-09-12T20:03:58.917Z,5.90
2022-09-12T20:06:27.390Z,3.80
2022-09-12T20:08:55.423Z,4.38
2022-09-12T20:11:24.568Z,5.80
2022-09-12T20:13:52.070Z,7.68
2022-09-12T20:16:24.660Z,6.68
2022-09-12T20:19:17.975Z,2.75
2022-09-12T20:21:46.015Z,3.40
2022-09-12T20:24:15.873Z,3.00
2022-09-12T20:26:43.236Z,4.30
2022-09-12T20:29:11.015Z,3.47
2022-09-12T20:31:40.583Z,5.13
2022-09-12T20:34:16.650Z,3.63
2022-09-12T20:36:43.938Z,3.42
2022-09-12T20:39:22.747Z,5.32
2022-09-12T20:41:50.107Z,6.20
2022-09-12T20:44:17.376Z,4.93
2022-09-12T20:46:44.520Z,5.15
2022-09-12T20:49:11.622Z,5.93
2022-09-12T20:51:38.914Z,6.28
2022-09-12T20:54:07.364Z,6.70
2022-09-12T20:56:36.675Z,4.32
2022-09-12T20:59:05.390Z,3.45
2022-09-12T21:01:33.841Z,10.15
2022-09-12T21:04:01.494Z,4.68
2022-09-12T21:06:28.984Z,2.90
2022-09-12T21:12:11.432Z,5.93
2022-09-12T21:14:38.467Z,3.60
2022-09-12T21:17:05.374Z,5.07
2022-09-12T21:19:32.407Z,4.93
2022-09-12T21:21:59.424Z,6.43
2022-09-12T21:24:26.290Z,4.10
2022-09-12T21:26:53.193Z,4.65
2022-09-12T21:29:20.688Z,4.93
2022-09-12T21:31:47.562Z,5.13
2022-09-12T21:34:14.452Z,3.63
2022-09-12T21:36:41.335Z,5.28
2022-09-12T21:39:08.207Z,4.10
2022-09-12T21:41:35.187Z,4.63
2022-09-12T21:44:02.557Z,4.30
2022-09-12T21:46:29.624Z,4.60
2022-09-12T21:48:56.429Z,4.38
2022-09-12T21:51:23.233Z,7.53
2022-09-12T21:53:50.119Z,5.47
2022-09-12T21:56:17.557Z,3.20
2022-09-12T21:58:44.517Z,4.85
2022-09-12T22:01:12.562Z,6.78
2022-09-12T22:03:39.821Z,5.13
2022-09-12T22:06:07.499Z,4.45
2022-09-12T22:08:37.422Z,5.90
2022-09-12T22:11:09.627Z,5.25
2022-09-12T22:13:43.863Z,4.60
2022-09-12T22:16:12.108Z,4.83
2022-09-12T22:18:39.150Z,5.32
2022-09-12T22:21:12.731Z,6.22
2022-09-12T22:23:58.584Z,4.80
2022-09-12T22:26:27.070Z,4.93
2022-09-12T22:28:54.452Z,8.93
2022-09-12T22:31:22.229Z,7.85
2022-09-12T22:33:49.955Z,6.05
2022-09-12T22:36:17.571Z,6.10
2022-09-12T22:38:44.442Z,6.97
2022-09-12T22:41:12.409Z,6.20
2022-09-12T22:43:39.413Z,6.00
2022-09-12T22:46:09.512Z,4.63
2022-09-12T22:48:37.752Z,6.68
2022-09-12T22:51:05.899Z,7.43
2022-09-12T22:53:33.098Z,5.72
2022-09-12T22:56:00.261Z,5.18
2022-09-12T22:58:27.782Z,6.15
2022-09-12T23:00:55.089Z,5.68
2022-09-12T23:03:22.260Z,7.32
2022-09-12T23:05:49.300Z,6.72
2022-09-12T23:08:19.322Z,6.43
2022-09-12T23:10:46.740Z,5.75
2022-09-12T23:13:13.809Z,6.47
2022-09-12T23:15:41.033Z,4.70
2022-09-12T23:18:08.432Z,7.95
2022-09-12T23:20:35.416Z,7.47
2022-09-12T23:23:02.314Z,4.38
2022-09-12T23:25:29.218Z,6.10
2022-09-12T23:27:56.019Z,4.80
2022-09-12T23:30:22.926Z,5.45
2022-09-12T23:32:49.841Z,5.45
2022-09-12T23:35:20.585Z,7.25
2022-09-12T23:37:47.762Z,3.97
2022-09-12T23:40:14.950Z,7.53
2022-09-12T23:42:41.968Z,6.60
2022-09-12T23:45:10.306Z,4.63
2022-09-12T23:47:37.276Z,6.63
2022-09-12T23:50:04.630Z,5.07
2022-09-12T23:52:31.505Z,7.95
2022-09-12T23:54:59.146Z,6.10
2022-09-12T23:57:26.028Z,6.47
2022-09-12T23:59:52.814Z,5.18
